Terminal Aerodrome Forecast
Issued by NWS

Home | Current Version | Previous Version | Text Only | Print | Product List | Glossary On
Versions: 1 2 3 4 5 6 7 8 9 10 11 12 13
203
FTUS45 KTFX 142339
TAFGTF
TAF
KGTF 142339Z 1500/1524 22015G22KT P6SM SCT120 BKN200
     FM151400 23024G34KT P6SM SCT090 BKN160=

USA.gov is the U.S. government's official web portal to all federal, state and local government web resources and services.